createdAt,value
2023-03-29T00:00:46.449Z,20.82
2023-03-29T00:03:13.127Z,20.84
2023-03-29T00:05:39.783Z,20.82
2023-03-29T00:08:06.319Z,20.70
2023-03-29T00:10:32.880Z,20.89
2023-03-29T00:12:59.453Z,20.71
2023-03-29T00:15:25.980Z,20.75
2023-03-29T00:17:52.565Z,20.67
2023-03-29T00:20:19.133Z,20.65
2023-03-29T00:22:45.721Z,20.68
2023-03-29T00:25:12.298Z,20.68
2023-03-29T00:27:38.867Z,20.66
2023-03-29T00:30:05.429Z,20.63
2023-03-29T00:32:31.979Z,20.68
2023-03-29T00:34:58.551Z,20.61
2023-03-29T00:37:25.084Z,20.68
2023-03-29T00:39:51.644Z,20.62
2023-03-29T00:42:18.203Z,20.66
2023-03-29T00:44:44.760Z,20.64
2023-03-29T00:47:11.296Z,20.68
2023-03-29T00:49:37.862Z,20.73
2023-03-29T00:52:04.401Z,20.67
2023-03-29T00:54:30.943Z,20.67
2023-03-29T00:56:57.527Z,20.56
2023-03-29T00:59:24.117Z,20.66
2023-03-29T05:06:32.937Z,20.28
2023-03-29T05:08:59.490Z,20.36
2023-03-29T05:11:26.032Z,20.29
2023-03-29T05:13:52.560Z,20.24
2023-03-29T05:16:19.161Z,20.24
2023-03-29T05:18:45.735Z,20.29
2023-03-29T05:21:12.283Z,20.39
2023-03-29T05:23:38.808Z,20.22
2023-03-29T05:26:05.406Z,20.24
2023-03-29T05:28:31.979Z,20.28
2023-03-29T05:30:58.562Z,20.23
2023-03-29T05:33:25.110Z,20.20
2023-03-29T05:35:51.683Z,20.26
2023-03-29T05:38:18.531Z,20.29
2023-03-29T05:40:45.128Z,20.21
2023-03-29T05:43:11.679Z,20.30
2023-03-29T05:45:38.251Z,20.35
2023-03-29T05:48:04.878Z,20.08
2023-03-29T05:50:31.467Z,20.29
2023-03-29T05:52:57.999Z,20.48
2023-03-29T05:55:24.560Z,20.49
2023-03-29T05:57:51.108Z,20.61
2023-03-29T06:00:17.675Z,20.39
2023-03-29T06:02:44.288Z,20.30
2023-03-29T06:05:10.933Z,20.22
2023-03-29T06:07:37.475Z,20.27
2023-03-29T06:10:04.008Z,20.49
2023-03-29T06:12:30.562Z,20.34
2023-03-29T06:14:57.108Z,20.35
2023-03-29T06:17:23.646Z,20.26
2023-03-29T06:19:50.208Z,20.26
2023-03-29T06:22:16.760Z,20.46
2023-03-29T06:24:43.306Z,20.41
2023-03-29T06:27:09.842Z,20.43
2023-03-29T06:29:36.379Z,20.48
2023-03-29T06:32:02.935Z,20.59
2023-03-29T06:34:29.479Z,20.49
2023-03-29T06:36:56.035Z,20.54
2023-03-29T06:39:22.578Z,20.45
2023-03-29T06:41:49.107Z,20.44
2023-03-29T06:44:15.643Z,20.41
2023-03-29T06:46:42.244Z,20.54
2023-03-29T06:49:08.818Z,20.30
2023-03-29T06:51:35.358Z,20.26
2023-03-29T06:54:01.924Z,20.13
2023-03-29T06:56:28.559Z,20.03
2023-03-29T06:58:55.129Z,20.11
2023-03-29T07:01:21.845Z,20.17
2023-03-29T07:03:48.556Z,20.12
2023-03-29T07:06:15.113Z,20.06
2023-03-29T07:08:41.674Z,20.07
2023-03-29T07:11:08.245Z,20.10
2023-03-29T07:13:34.919Z,20.10
2023-03-29T07:16:01.542Z,20.12
2023-03-29T07:18:28.270Z,20.12
2023-03-29T07:20:54.819Z,20.20
2023-03-29T07:23:21.343Z,20.23
2023-03-29T07:25:47.897Z,20.21
2023-03-29T07:28:14.446Z,20.24
2023-03-29T07:30:41.028Z,20.24
2023-03-29T07:33:07.641Z,20.33
2023-03-29T07:35:34.346Z,20.30
2023-03-29T07:38:00.919Z,20.33
2023-03-29T07:40:27.482Z,20.34
2023-03-29T07:42:54.319Z,20.37
2023-03-29T07:45:25.982Z,20.39
2023-03-29T07:47:52.878Z,20.44
2023-03-29T07:50:19.479Z,20.49
2023-03-29T07:52:46.075Z,20.48
2023-03-29T07:55:12.605Z,20.49
2023-03-29T07:57:39.153Z,20.49
2023-03-29T08:00:05.709Z,20.49
2023-03-29T08:02:32.312Z,20.49
2023-03-29T08:04:58.916Z,20.49
2023-03-29T08:07:25.472Z,20.52
2023-03-29T08:09:52.019Z,20.49
2023-03-29T08:12:18.550Z,20.52
2023-03-29T08:14:45.094Z,20.41
2023-03-29T08:17:11.683Z,20.48
2023-03-29T08:19:38.305Z,20.52
2023-03-29T08:22:04.876Z,20.49
2023-03-29T08:24:31.436Z,20.59
2023-03-29T08:26:57.992Z,20.59
2023-03-29T08:29:24.529Z,20.53
2023-03-29T08:31:51.095Z,20.58
2023-03-29T08:34:17.641Z,20.62
2023-03-29T08:36:44.177Z,20.64
2023-03-29T08:39:10.737Z,20.77
2023-03-29T08:41:37.289Z,20.74
2023-03-29T08:44:03.822Z,20.68
2023-03-29T08:46:35.140Z,20.72
2023-03-29T08:49:02.316Z,20.86
2023-03-29T08:51:28.863Z,20.69
2023-03-29T08:53:55.398Z,20.79
2023-03-29T08:56:21.937Z,20.82
2023-03-29T08:58:48.477Z,20.79
2023-03-29T09:01:15.123Z,20.82
2023-03-29T09:03:41.861Z,20.88
2023-03-29T09:06:08.431Z,20.83
2023-03-29T09:08:34.988Z,20.84
2023-03-29T09:11:01.704Z,20.79
2023-03-29T09:13:28.480Z,20.83
2023-03-29T09:15:55.231Z,20.71
2023-03-29T09:18:21.808Z,20.72
2023-03-29T09:20:48.356Z,20.60
2023-03-29T09:23:14.904Z,20.58
2023-03-29T09:25:50.968Z,20.61
2023-03-29T09:28:19.556Z,20.71
2023-03-29T09:30:46.124Z,20.64
2023-03-29T09:33:12.746Z,20.63
2023-03-29T09:35:39.368Z,20.77
2023-03-29T09:38:05.939Z,20.73
2023-03-29T09:40:32.495Z,20.82
2023-03-29T09:42:59.060Z,20.96
2023-03-29T09:45:25.637Z,20.99
2023-03-29T09:47:52.278Z,20.96
2023-03-29T09:50:30.252Z,20.98
2023-03-29T09:52:57.845Z,20.77
2023-03-29T09:55:24.421Z,20.63
2023-03-29T09:57:51.165Z,20.53
2023-03-29T10:00:17.742Z,20.30
2023-03-29T10:02:44.349Z,20.04
2023-03-29T10:05:10.889Z,20.27
2023-03-29T10:07:37.433Z,20.18
2023-03-29T10:10:03.988Z,20.25
2023-03-29T10:12:30.534Z,20.28
2023-03-29T10:14:57.083Z,20.34
2023-03-29T10:17:23.679Z,20.40
2023-03-29T10:19:50.310Z,20.39
2023-03-29T10:22:16.875Z,20.30
2023-03-29T10:24:43.433Z,20.43
2023-03-29T10:27:09.995Z,20.44
2023-03-29T10:29:36.528Z,20.38
2023-03-29T10:32:03.130Z,20.45
2023-03-29T10:34:29.720Z,20.49
2023-03-29T10:36:56.262Z,20.48
2023-03-29T10:39:22.856Z,20.56
2023-03-29T10:41:49.392Z,20.63
2023-03-29T10:44:15.943Z,20.69
2023-03-29T10:46:42.538Z,20.56
2023-03-29T10:49:09.215Z,20.69
2023-03-29T10:51:35.772Z,20.77
2023-03-29T10:54:02.331Z,20.85
2023-03-29T10:56:28.883Z,20.86
2023-03-29T10:58:55.440Z,20.92
2023-03-29T11:01:22.040Z,20.94
2023-03-29T11:03:48.689Z,20.81
2023-03-29T11:06:15.291Z,20.92
2023-03-29T11:08:41.853Z,21.00
2023-03-29T11:11:08.406Z,20.98
2023-03-29T11:13:34.949Z,20.95
2023-03-29T11:16:01.581Z,20.91
2023-03-29T11:18:28.195Z,20.92
2023-03-29T11:20:54.741Z,20.97
2023-03-29T11:23:21.287Z,20.99
2023-03-29T11:25:47.872Z,21.01
2023-03-29T11:28:14.411Z,20.99
2023-03-29T11:30:40.977Z,21.00
2023-03-29T11:33:07.588Z,20.98
2023-03-29T11:35:34.154Z,21.04
2023-03-29T11:38:00.717Z,21.12
2023-03-29T11:40:27.283Z,21.08
2023-03-29T11:42:53.848Z,21.14
2023-03-29T11:45:20.400Z,21.13
2023-03-29T11:47:47.096Z,21.02
2023-03-29T11:50:13.674Z,21.09
2023-03-29T11:52:40.282Z,21.13
2023-03-29T11:55:06.853Z,21.18
2023-03-29T11:57:33.399Z,21.14
2023-03-29T11:59:59.943Z,21.18
2023-03-29T12:02:26.600Z,21.15
2023-03-29T12:04:53.227Z,21.19
2023-03-29T12:07:19.776Z,21.20
2023-03-29T12:09:46.333Z,21.21
2023-03-29T12:12:12.907Z,21.19
2023-03-29T12:14:39.444Z,21.20
2023-03-29T12:17:06.004Z,21.21
2023-03-29T12:19:32.648Z,21.26
2023-03-29T12:21:59.201Z,21.25
2023-03-29T12:24:25.772Z,21.24
2023-03-29T12:26:52.323Z,21.22
2023-03-29T12:29:18.871Z,21.26
2023-03-29T12:31:45.436Z,21.26
2023-03-29T12:34:12.033Z,21.24
2023-03-29T12:36:38.579Z,21.15
2023-03-29T12:39:05.157Z,20.94
2023-03-29T12:41:31.693Z,21.01
2023-03-29T12:43:58.242Z,21.06
2023-03-29T12:46:24.812Z,20.96
2023-03-29T12:48:51.377Z,20.96
2023-03-29T12:51:17.943Z,20.90
2023-03-29T12:53:44.563Z,20.90
2023-03-29T12:56:11.119Z,20.92
2023-03-29T12:58:37.673Z,20.90
2023-03-29T13:01:05.811Z,20.92
2023-03-29T13:03:32.763Z,20.94
2023-03-29T13:05:59.307Z,20.98
2023-03-29T13:08:25.876Z,21.08
2023-03-29T13:10:52.443Z,21.23
2023-03-29T13:13:19.000Z,21.28
2023-03-29T13:15:45.589Z,21.32
2023-03-29T13:18:12.619Z,21.24
2023-03-29T13:20:39.325Z,21.12
2023-03-29T13:23:05.884Z,21.13
2023-03-29T13:25:32.474Z,21.07
2023-03-29T13:27:59.059Z,20.96
2023-03-29T13:30:25.606Z,21.00
2023-03-29T13:32:52.190Z,20.98
2023-03-29T13:35:18.740Z,21.00
2023-03-29T13:37:45.287Z,21.03
2023-03-29T13:40:11.868Z,21.02
2023-03-29T13:42:38.420Z,20.99
2023-03-29T13:45:04.975Z,20.98
2023-03-29T13:47:31.592Z,20.96
2023-03-29T13:49:58.148Z,20.93
2023-03-29T13:52:24.730Z,20.93
2023-03-29T13:54:51.333Z,20.95
2023-03-29T13:57:17.978Z,20.92
2023-03-29T13:59:44.573Z,20.73
2023-03-29T14:02:11.175Z,20.59
2023-03-29T14:04:37.810Z,20.83
2023-03-29T14:07:04.405Z,21.06
2023-03-29T14:09:30.960Z,21.18
2023-03-29T14:11:57.535Z,21.22
2023-03-29T14:14:24.103Z,21.16
2023-03-29T14:16:50.771Z,21.07
2023-03-29T14:19:17.396Z,21.06
2023-03-29T14:21:43.972Z,21.01
2023-03-29T14:24:10.600Z,21.00
2023-03-29T14:26:37.156Z,20.96
2023-03-29T14:29:03.725Z,20.94
2023-03-29T14:31:30.312Z,20.96
2023-03-29T14:33:56.894Z,20.97
2023-03-29T14:36:23.508Z,20.95
2023-03-29T14:38:50.126Z,20.95
2023-03-29T14:41:16.679Z,20.94
2023-03-29T14:43:43.237Z,20.90
2023-03-29T14:46:09.846Z,20.92
2023-03-29T14:48:36.387Z,20.94
2023-03-29T14:51:02.992Z,20.93
2023-03-29T14:53:29.561Z,20.88
2023-03-29T14:55:56.117Z,20.91
2023-03-29T14:58:22.698Z,20.78
2023-03-29T15:00:49.298Z,21.08
2023-03-29T15:03:15.988Z,21.09
2023-03-29T15:05:42.625Z,21.09
2023-03-29T15:08:09.264Z,21.12
2023-03-29T15:10:35.797Z,21.07
2023-03-29T15:13:02.340Z,21.04
2023-03-29T15:15:28.925Z,21.00
2023-03-29T15:17:55.502Z,20.93
2023-03-29T15:20:22.066Z,20.91
2023-03-29T15:22:48.614Z,20.88
2023-03-29T15:25:15.190Z,20.90
2023-03-29T15:27:41.757Z,20.92
2023-03-29T15:30:08.329Z,20.87
2023-03-29T15:32:34.916Z,20.87
2023-03-29T15:35:01.512Z,20.88
2023-03-29T15:37:28.059Z,20.87
2023-03-29T15:39:54.597Z,20.87
2023-03-29T15:42:21.186Z,20.85
2023-03-29T15:44:47.766Z,20.85
2023-03-29T15:47:14.312Z,20.86
2023-03-29T15:49:40.868Z,20.81
2023-03-29T15:52:07.432Z,20.83
2023-03-29T15:54:33.995Z,20.82
2023-03-29T15:57:00.626Z,20.87
2023-03-29T15:59:27.215Z,20.96
2023-03-29T16:01:53.811Z,21.01
2023-03-29T16:04:20.356Z,21.03
2023-03-29T16:06:46.971Z,20.95
2023-03-29T16:09:13.541Z,20.98
2023-03-29T16:11:40.091Z,21.01
2023-03-29T16:14:06.699Z,21.02
2023-03-29T16:16:33.300Z,20.95
2023-03-29T16:18:59.864Z,20.93
2023-03-29T16:21:26.400Z,20.94
2023-03-29T16:23:52.939Z,20.82
2023-03-29T16:26:19.503Z,20.83
2023-03-29T16:28:46.083Z,20.97
2023-03-29T16:31:12.732Z,21.09
2023-03-29T16:33:39.382Z,21.06
2023-03-29T16:36:06.282Z,20.94
2023-03-29T16:38:33.045Z,20.91
2023-03-29T16:40:59.626Z,21.00
2023-03-29T16:43:26.168Z,21.14
2023-03-29T16:45:52.779Z,21.02
2023-03-29T16:48:19.381Z,21.03
2023-03-29T16:50:45.981Z,20.95
2023-03-29T16:53:12.536Z,21.22
2023-03-29T16:55:39.092Z,21.21
2023-03-29T16:58:05.650Z,21.22
2023-03-29T17:00:32.236Z,21.16
2023-03-29T17:02:58.856Z,21.12
2023-03-29T17:05:25.433Z,21.05
2023-03-29T17:07:51.983Z,21.00
2023-03-29T17:10:18.544Z,20.96
2023-03-29T17:12:45.071Z,20.97
2023-03-29T17:15:11.611Z,20.92
2023-03-29T17:17:38.180Z,21.04
2023-03-29T17:20:04.747Z,20.91
2023-03-29T17:22:31.312Z,20.94
2023-03-29T17:24:57.871Z,20.97
2023-03-29T17:27:24.429Z,21.02
2023-03-29T17:29:50.996Z,21.11
2023-03-29T17:32:17.565Z,21.16
2023-03-29T17:34:44.124Z,21.01
2023-03-29T17:37:10.673Z,20.95
2023-03-29T17:39:37.324Z,21.00
2023-03-29T17:42:04.068Z,21.07
2023-03-29T17:44:30.608Z,21.02
2023-03-29T17:46:57.254Z,21.00
2023-03-29T17:49:23.810Z,21.18
2023-03-29T17:51:50.376Z,21.26
2023-03-29T17:54:16.957Z,21.26
2023-03-29T17:56:43.537Z,21.28
2023-03-29T17:59:10.101Z,21.30
2023-03-29T18:01:38.993Z,21.28
2023-03-29T18:04:05.862Z,21.26
2023-03-29T18:06:32.437Z,21.27
2023-03-29T18:08:59.019Z,21.26
2023-03-29T18:11:25.603Z,21.27
2023-03-29T18:13:52.179Z,21.23
2023-03-29T18:16:18.787Z,21.24
2023-03-29T18:18:46.278Z,21.25
2023-03-29T18:21:12.900Z,21.22
2023-03-29T18:23:39.480Z,21.20
2023-03-29T18:26:06.186Z,21.18
2023-03-29T18:28:32.954Z,21.19
2023-03-29T18:30:59.521Z,21.14
2023-03-29T18:33:26.087Z,21.17
2023-03-29T18:35:52.780Z,21.14
2023-03-29T18:38:19.385Z,21.10
2023-03-29T18:40:45.943Z,21.13
2023-03-29T18:43:12.496Z,21.09
2023-03-29T18:45:39.102Z,21.06
2023-03-29T18:48:05.735Z,21.05
2023-03-29T18:50:32.316Z,21.03
2023-03-29T18:52:58.872Z,21.08
2023-03-29T18:55:25.432Z,21.05
2023-03-29T18:57:51.968Z,21.01
2023-03-29T19:00:18.507Z,21.02
2023-03-29T19:02:45.131Z,21.14
2023-03-29T19:05:11.755Z,21.08
2023-03-29T19:07:38.311Z,21.04
2023-03-29T19:10:04.875Z,21.07
2023-03-29T19:12:31.418Z,21.05
2023-03-29T19:14:57.968Z,21.05
2023-03-29T19:17:24.541Z,21.02
2023-03-29T19:19:51.134Z,20.98
2023-03-29T19:22:17.695Z,21.01
2023-03-29T19:24:44.255Z,21.00
2023-03-29T19:27:12.555Z,20.99
2023-03-29T19:29:39.293Z,20.96
2023-03-29T19:32:05.836Z,20.95
2023-03-29T19:34:32.385Z,20.96
2023-03-29T19:36:58.964Z,20.92
2023-03-29T19:39:25.527Z,20.97
2023-03-29T19:41:52.119Z,20.93
2023-03-29T19:44:18.666Z,20.88
2023-03-29T19:46:45.244Z,20.90
2023-03-29T19:49:11.807Z,20.98
2023-03-29T19:51:38.364Z,20.94
2023-03-29T19:54:04.933Z,20.90
2023-03-29T19:56:31.478Z,20.87
2023-03-29T19:58:58.033Z,20.90
2023-03-29T20:01:24.625Z,20.87
2023-03-29T20:03:51.266Z,20.89
2023-03-29T20:06:18.055Z,20.86
2023-03-29T20:08:44.597Z,20.86
2023-03-29T20:11:11.177Z,20.82
2023-03-29T20:13:39.027Z,20.85
2023-03-29T20:16:05.785Z,20.81
2023-03-29T20:18:32.401Z,20.79
2023-03-29T20:20:58.959Z,20.86
2023-03-29T20:23:25.522Z,20.87
2023-03-29T20:25:52.088Z,20.84
2023-03-29T20:28:18.626Z,20.83
2023-03-29T20:30:45.178Z,20.81
2023-03-29T20:33:11.719Z,20.80
2023-03-29T20:35:38.375Z,20.90
2023-03-29T20:38:04.983Z,20.78
2023-03-29T20:40:31.545Z,20.76
2023-03-29T20:42:58.113Z,20.78
2023-03-29T20:45:24.678Z,20.79
2023-03-29T20:47:51.295Z,20.85
2023-03-29T20:50:17.924Z,20.86
2023-03-29T20:52:44.477Z,20.83
2023-03-29T20:55:11.046Z,20.81
2023-03-29T20:57:37.602Z,20.76
2023-03-29T21:00:04.222Z,20.76
2023-03-29T21:02:30.794Z,20.85
2023-03-29T21:04:57.380Z,20.80
2023-03-29T21:07:23.924Z,20.73
2023-03-29T21:09:50.487Z,20.77
2023-03-29T21:12:17.085Z,20.78
2023-03-29T21:14:43.662Z,20.81
2023-03-29T21:17:10.278Z,20.73
2023-03-29T21:19:36.848Z,20.72
2023-03-29T21:22:03.386Z,20.83
2023-03-29T21:24:29.956Z,20.79
2023-03-29T21:26:56.528Z,20.76
2023-03-29T21:29:23.131Z,20.77
2023-03-29T21:31:49.774Z,20.85
2023-03-29T21:34:16.341Z,20.74
2023-03-29T21:36:42.893Z,20.86
2023-03-29T21:39:09.441Z,20.82
2023-03-29T21:41:35.998Z,20.86
2023-03-29T21:44:02.553Z,20.83
2023-03-29T21:46:29.160Z,20.72
2023-03-29T21:48:55.762Z,20.76
2023-03-29T21:51:22.345Z,20.75
2023-03-29T21:53:48.927Z,20.85
2023-03-29T21:56:15.468Z,20.86
2023-03-29T21:58:42.054Z,20.86
2023-03-29T22:01:08.627Z,20.85
2023-03-29T22:03:35.198Z,20.83
2023-03-29T22:06:01.746Z,20.73
2023-03-29T22:08:28.283Z,20.73
2023-03-29T22:10:54.844Z,20.92
2023-03-29T22:13:21.399Z,20.87
2023-03-29T22:15:47.949Z,20.84
2023-03-29T22:18:14.497Z,20.89
2023-03-29T22:20:41.079Z,20.78
2023-03-29T22:23:07.632Z,20.82
2023-03-29T22:25:34.445Z,20.79
2023-03-29T22:28:00.989Z,20.87
2023-03-29T22:30:27.542Z,20.90
2023-03-29T22:32:54.159Z,20.82
2023-03-29T22:35:20.751Z,20.85
2023-03-29T22:37:47.307Z,20.85
2023-03-29T22:40:13.881Z,20.73
2023-03-29T22:42:40.458Z,20.85
2023-03-29T22:45:07.003Z,20.94
2023-03-29T22:47:33.573Z,20.67
2023-03-29T22:50:00.207Z,20.73
2023-03-29T22:52:26.771Z,20.78
2023-03-29T22:54:53.310Z,20.71
2023-03-29T22:57:19.924Z,20.82
2023-03-29T22:59:46.552Z,20.70
2023-03-29T23:02:13.104Z,20.74
2023-03-29T23:04:39.792Z,20.69
2023-03-29T23:07:06.389Z,20.75
2023-03-29T23:09:32.968Z,20.76
2023-03-29T23:11:59.550Z,20.81
2023-03-29T23:14:26.129Z,20.69
2023-03-29T23:16:52.700Z,20.73
2023-03-29T23:19:19.260Z,20.75
2023-03-29T23:21:45.792Z,20.68
2023-03-29T23:24:12.355Z,20.78
2023-03-29T23:26:38.892Z,20.78
2023-03-29T23:29:05.427Z,20.73
2023-03-29T23:31:31.990Z,20.71
2023-03-29T23:33:58.555Z,20.77
2023-03-29T23:36:25.096Z,20.73
2023-03-29T23:38:51.650Z,20.88
2023-03-29T23:41:18.190Z,20.90
2023-03-29T23:43:44.797Z,20.88
2023-03-29T23:46:11.401Z,20.88
2023-03-29T23:48:38.028Z,20.77
2023-03-29T23:51:04.731Z,20.80
2023-03-29T23:53:31.413Z,20.79
2023-03-29T23:55:57.973Z,20.76
2023-03-29T23:58:24.517Z,20.75
